sensor_id;sensor_type;location;lat;lon;timestamp;temperature;humidity
21167;DHT22;10741;52.272;9.580;2023-07-29T00:01:44;18.90;99.90
21167;DHT22;10741;52.272;9.580;2023-07-29T00:04:11;18.90;99.90
21167;DHT22;10741;52.272;9.580;2023-07-29T00:06:37;18.90;99.90
21167;DHT22;10741;52.272;9.580;2023-07-29T00:09:03;19.00;99.90
21167;DHT22;10741;52.272;9.580;2023-07-29T00:11:29;18.90;99.90
21167;DHT22;10741;52.272;9.580;2023-07-29T00:13:55;18.90;99.90
21167;DHT22;10741;52.272;9.580;2023-07-29T00:16:21;18.90;99.90
21167;DHT22;10741;52.272;9.580;2023-07-29T00:18:48;18.80;99.90
21167;DHT22;10741;52.272;9.580;2023-07-29T00:21:14;18.60;99.90
21167;DHT22;10741;52.272;9.580;2023-07-29T00:23:40;18.70;99.90
21167;DHT22;10741;52.272;9.580;2023-07-29T00:26:06;18.70;99.90
21167;DHT22;10741;52.272;9.580;2023-07-29T00:28:32;18.70;99.90
21167;DHT22;10741;52.272;9.580;2023-07-29T00:30:57;18.70;99.90
21167;DHT22;10741;52.272;9.580;2023-07-29T00:33:23;18.60;99.90
21167;DHT22;10741;52.272;9.580;2023-07-29T00:35:49;18.70;99.90
21167;DHT22;10741;52.272;9.580;2023-07-29T00:38:15;18.60;99.90
21167;DHT22;10741;52.272;9.580;2023-07-29T00:40:40;18.60;99.90
21167;DHT22;10741;52.272;9.580;2023-07-29T00:43:06;18.60;99.90
21167;DHT22;10741;52.272;9.580;2023-07-29T00:45:33;18.70;99.90
21167;DHT22;10741;52.272;9.580;2023-07-29T00:48:00;18.70;99.90
21167;DHT22;10741;52.272;9.580;2023-07-29T00:50:27;18.70;99.90
21167;DHT22;10741;52.272;9.580;2023-07-29T00:52:54;18.80;99.90
21167;DHT22;10741;52.272;9.580;2023-07-29T00:55:20;18.80;99.90
21167;DHT22;10741;52.272;9.580;2023-07-29T00:57:46;18.90;99.90
21167;DHT22;10741;52.272;9.580;2023-07-29T01:00:15;18.80;99.90
21167;DHT22;10741;52.272;9.580;2023-07-29T01:02:45;18.80;99.90
21167;DHT22;10741;52.272;9.580;2023-07-29T03:43:20;19.00;99.90
21167;DHT22;10741;52.272;9.580;2023-07-29T03:45:46;19.00;99.90
21167;DHT22;10741;52.272;9.580;2023-07-29T03:48:12;19.00;99.90
21167;DHT22;10741;52.272;9.580;2023-07-29T03:50:38;19.00;99.90
21167;DHT22;10741;52.272;9.580;2023-07-29T03:53:04;19.00;99.90
21167;DHT22;10741;52.272;9.580;2023-07-29T03:55:30;19.00;99.90
21167;DHT22;10741;52.272;9.580;2023-07-29T03:57:57;19.00;99.90
21167;DHT22;10741;52.272;9.580;2023-07-29T04:00:23;19.00;99.90
21167;DHT22;10741;52.272;9.580;2023-07-29T04:02:49;19.10;99.90
21167;DHT22;10741;52.272;9.580;2023-07-29T04:05:15;19.10;99.90
21167;DHT22;10741;52.272;9.580;2023-07-29T04:07:42;19.10;99.90
21167;DHT22;10741;52.272;9.580;2023-07-29T04:10:08;19.10;99.90
21167;DHT22;10741;52.272;9.580;2023-07-29T04:12:33;19.10;99.90
21167;DHT22;10741;52.272;9.580;2023-07-29T04:14:59;19.10;99.90
21167;DHT22;10741;52.272;9.580;2023-07-29T04:17:25;19.10;99.90
21167;DHT22;10741;52.272;9.580;2023-07-29T04:19:51;19.10;99.90
21167;DHT22;10741;52.272;9.580;2023-07-29T04:22:17;19.20;99.90
21167;DHT22;10741;52.272;9.580;2023-07-29T04:24:42;19.10;99.90
21167;DHT22;10741;52.272;9.580;2023-07-29T04:27:08;19.10;99.90
21167;DHT22;10741;52.272;9.580;2023-07-29T04:29:34;19.10;99.90
21167;DHT22;10741;52.272;9.580;2023-07-29T04:32:03;19.00;99.90
21167;DHT22;10741;52.272;9.580;2023-07-29T04:34:29;19.00;99.90
21167;DHT22;10741;52.272;9.580;2023-07-29T04:36:57;19.00;99.90
21167;DHT22;10741;52.272;9.580;2023-07-29T04:39:25;19.00;99.90
21167;DHT22;10741;52.272;9.580;2023-07-29T04:41:51;18.90;99.90
21167;DHT22;10741;52.272;9.580;2023-07-29T04:44:17;18.90;99.90
21167;DHT22;10741;52.272;9.580;2023-07-29T04:46:43;19.00;99.90
21167;DHT22;10741;52.272;9.580;2023-07-29T04:49:09;19.00;99.90
21167;DHT22;10741;52.272;9.580;2023-07-29T04:51:35;19.10;99.90
21167;DHT22;10741;52.272;9.580;2023-07-29T04:54:02;19.00;99.90
21167;DHT22;10741;52.272;9.580;2023-07-29T04:56:28;19.10;99.90
21167;DHT22;10741;52.272;9.580;2023-07-29T04:58:54;19.10;99.90
21167;DHT22;10741;52.272;9.580;2023-07-29T05:01:20;19.10;99.90
21167;DHT22;10741;52.272;9.580;2023-07-29T05:03:45;19.10;99.90
21167;DHT22;10741;52.272;9.580;2023-07-29T05:06:11;19.10;99.90
21167;DHT22;10741;52.272;9.580;2023-07-29T05:08:37;19.10;99.90
21167;DHT22;10741;52.272;9.580;2023-07-29T09:38:58;22.10;99.90
21167;DHT22;10741;52.272;9.580;2023-07-29T09:41:25;22.80;99.90
21167;DHT22;10741;52.272;9.580;2023-07-29T09:43:59;22.80;99.90
21167;DHT22;10741;52.272;9.580;2023-07-29T09:46:35;22.30;99.90
21167;DHT22;10741;52.272;9.580;2023-07-29T09:49:03;22.20;99.90
21167;DHT22;10741;52.272;9.580;2023-07-29T09:51:29;22.10;99.90
21167;DHT22;10741;52.272;9.580;2023-07-29T09:53:55;21.90;99.90
21167;DHT22;10741;52.272;9.580;2023-07-29T09:56:26;22.30;99.90
21167;DHT22;10741;52.272;9.580;2023-07-29T09:58:52;22.50;99.90
21167;DHT22;10741;52.272;9.580;2023-07-29T10:01:20;22.60;99.90
21167;DHT22;10741;52.272;9.580;2023-07-29T10:03:47;22.70;99.90
21167;DHT22;10741;52.272;9.580;2023-07-29T10:06:14;22.70;99.90
21167;DHT22;10741;52.272;9.580;2023-07-29T10:08:42;22.70;99.90
21167;DHT22;10741;52.272;9.580;2023-07-29T10:11:09;22.60;99.90
21167;DHT22;10741;52.272;9.580;2023-07-29T10:13:37;22.60;99.90
21167;DHT22;10741;52.272;9.580;2023-07-29T10:16:03;22.60;99.90
21167;DHT22;10741;52.272;9.580;2023-07-29T10:18:31;22.60;99.90
21167;DHT22;10741;52.272;9.580;2023-07-29T10:20:59;22.40;99.90
21167;DHT22;10741;52.272;9.580;2023-07-29T10:23:27;22.40;99.90
21167;DHT22;10741;52.272;9.580;2023-07-29T10:26:05;22.40;99.90
21167;DHT22;10741;52.272;9.580;2023-07-29T10:28:40;22.60;99.90
21167;DHT22;10741;52.272;9.580;2023-07-29T10:31:07;22.80;99.90
21167;DHT22;10741;52.272;9.580;2023-07-29T10:33:34;22.70;99.90
21167;DHT22;10741;52.272;9.580;2023-07-29T10:36:00;22.60;99.90
21167;DHT22;10741;52.272;9.580;2023-07-29T10:38:26;22.40;99.90
21167;DHT22;10741;52.272;9.580;2023-07-29T10:40:57;22.50;99.90
21167;DHT22;10741;52.272;9.580;2023-07-29T10:43:34;22.70;99.90
21167;DHT22;10741;52.272;9.580;2023-07-29T10:48:44;22.70;99.90
21167;DHT22;10741;52.272;9.580;2023-07-29T10:51:31;22.60;99.90
21167;DHT22;10741;52.272;9.580;2023-07-29T10:54:02;22.60;99.90
21167;DHT22;10741;52.272;9.580;2023-07-29T10:56:33;22.50;99.90
21167;DHT22;10741;52.272;9.580;2023-07-29T10:59:22;22.40;99.90
21167;DHT22;10741;52.272;9.580;2023-07-29T11:01:57;22.30;99.90
21167;DHT22;10741;52.272;9.580;2023-07-29T11:04:24;22.50;99.90
21167;DHT22;10741;52.272;9.580;2023-07-29T11:09:54;22.60;99.90
21167;DHT22;10741;52.272;9.580;2023-07-29T11:15:24;22.40;99.90
21167;DHT22;10741;52.272;9.580;2023-07-29T11:17:58;22.50;99.90
21167;DHT22;10741;52.272;9.580;2023-07-29T11:20:28;22.80;99.90
21167;DHT22;10741;52.272;9.580;2023-07-29T11:22:55;22.90;99.90
21167;DHT22;10741;52.272;9.580;2023-07-29T11:25:23;23.20;99.90
21167;DHT22;10741;52.272;9.580;2023-07-29T11:27:51;23.70;99.90
21167;DHT22;10741;52.272;9.580;2023-07-29T11:30:17;24.20;99.90
21167;DHT22;10741;52.272;9.580;2023-07-29T11:32:44;24.40;99.90
21167;DHT22;10741;52.272;9.580;2023-07-29T11:35:17;24.30;99.90
21167;DHT22;10741;52.272;9.580;2023-07-29T11:37:45;23.90;99.90
21167;DHT22;10741;52.272;9.580;2023-07-29T11:40:16;23.80;99.90
21167;DHT22;10741;52.272;9.580;2023-07-29T11:42:43;24.40;99.90
21167;DHT22;10741;52.272;9.580;2023-07-29T11:45:10;25.00;99.90
21167;DHT22;10741;52.272;9.580;2023-07-29T11:47:36;25.60;99.90
21167;DHT22;10741;52.272;9.580;2023-07-29T11:50:07;25.70;99.90
21167;DHT22;10741;52.272;9.580;2023-07-29T11:52:37;25.30;99.90
21167;DHT22;10741;52.272;9.580;2023-07-29T11:55:05;25.00;99.90
21167;DHT22;10741;52.272;9.580;2023-07-29T11:57:33;24.80;99.90
21167;DHT22;10741;52.272;9.580;2023-07-29T12:00:05;24.80;99.90
21167;DHT22;10741;52.272;9.580;2023-07-29T12:02:33;24.90;99.90
21167;DHT22;10741;52.272;9.580;2023-07-29T12:05:02;25.00;99.90
21167;DHT22;10741;52.272;9.580;2023-07-29T12:07:28;25.00;99.90
21167;DHT22;10741;52.272;9.580;2023-07-29T12:09:54;25.00;99.90
21167;DHT22;10741;52.272;9.580;2023-07-29T12:12:22;25.20;99.90
21167;DHT22;10741;52.272;9.580;2023-07-29T12:14:48;25.50;99.90
21167;DHT22;10741;52.272;9.580;2023-07-29T12:17:15;25.70;99.90
21167;DHT22;10741;52.272;9.580;2023-07-29T12:19:42;25.90;99.90
21167;DHT22;10741;52.272;9.580;2023-07-29T12:22:10;26.10;99.90
21167;DHT22;10741;52.272;9.580;2023-07-29T12:24:40;26.00;99.90
21167;DHT22;10741;52.272;9.580;2023-07-29T12:27:12;25.70;99.90
21167;DHT22;10741;52.272;9.580;2023-07-29T12:29:43;25.70;99.90
21167;DHT22;10741;52.272;9.580;2023-07-29T12:32:10;26.10;99.90
21167;DHT22;10741;52.272;9.580;2023-07-29T12:34:37;26.50;99.90
21167;DHT22;10741;52.272;9.580;2023-07-29T12:37:05;26.40;99.90
21167;DHT22;10741;52.272;9.580;2023-07-29T12:39:33;25.90;99.90
21167;DHT22;10741;52.272;9.580;2023-07-29T12:42:00;26.20;99.90
21167;DHT22;10741;52.272;9.580;2023-07-29T12:44:35;26.20;99.90
21167;DHT22;10741;52.272;9.580;2023-07-29T12:47:05;26.60;99.90
21167;DHT22;10741;52.272;9.580;2023-07-29T12:49:35;26.90;99.90
21167;DHT22;10741;52.272;9.580;2023-07-29T12:52:01;26.80;99.90
21167;DHT22;10741;52.272;9.580;2023-07-29T12:54:27;25.70;99.90
21167;DHT22;10741;52.272;9.580;2023-07-29T12:56:53;25.80;99.90
21167;DHT22;10741;52.272;9.580;2023-07-29T12:59:18;26.30;99.90
21167;DHT22;10741;52.272;9.580;2023-07-29T13:01:44;26.30;99.90
21167;DHT22;10741;52.272;9.580;2023-07-29T13:04:10;26.60;99.90
21167;DHT22;10741;52.272;9.580;2023-07-29T13:06:36;26.90;99.90
21167;DHT22;10741;52.272;9.580;2023-07-29T13:09:02;27.10;99.90
21167;DHT22;10741;52.272;9.580;2023-07-29T13:11:28;27.30;99.90
21167;DHT22;10741;52.272;9.580;2023-07-29T13:13:54;27.50;99.90
21167;DHT22;10741;52.272;9.580;2023-07-29T13:16:20;27.70;99.90
21167;DHT22;10741;52.272;9.580;2023-07-29T13:18:45;27.50;99.90
21167;DHT22;10741;52.272;9.580;2023-07-29T13:21:11;27.80;99.90
21167;DHT22;10741;52.272;9.580;2023-07-29T13:23:37;28.10;99.90
21167;DHT22;10741;52.272;9.580;2023-07-29T13:26:03;28.30;98.70
21167;DHT22;10741;52.272;9.580;2023-07-29T13:28:28;27.10;98.70
21167;DHT22;10741;52.272;9.580;2023-07-29T13:30:56;26.20;99.90
21167;DHT22;10741;52.272;9.580;2023-07-29T13:33:22;25.60;99.90
21167;DHT22;10741;52.272;9.580;2023-07-29T13:35:48;25.30;99.90
21167;DHT22;10741;52.272;9.580;2023-07-29T13:38:14;25.10;99.90
21167;DHT22;10741;52.272;9.580;2023-07-29T13:40:39;25.40;99.90
21167;DHT22;10741;52.272;9.580;2023-07-29T13:43:05;25.80;99.90
21167;DHT22;10741;52.272;9.580;2023-07-29T13:45:31;26.10;99.90
21167;DHT22;10741;52.272;9.580;2023-07-29T13:47:57;26.30;99.90
21167;DHT22;10741;52.272;9.580;2023-07-29T13:50:22;26.20;99.90
21167;DHT22;10741;52.272;9.580;2023-07-29T13:52:48;26.50;99.90
21167;DHT22;10741;52.272;9.580;2023-07-29T13:55:14;26.60;99.90
21167;DHT22;10741;52.272;9.580;2023-07-29T13:57:40;26.60;99.90
21167;DHT22;10741;52.272;9.580;2023-07-29T14:00:09;26.10;99.90
21167;DHT22;10741;52.272;9.580;2023-07-29T14:02:35;26.50;99.90
21167;DHT22;10741;52.272;9.580;2023-07-29T14:05:01;26.80;99.90
21167;DHT22;10741;52.272;9.580;2023-07-29T14:07:27;27.20;99.90
21167;DHT22;10741;52.272;9.580;2023-07-29T14:09:52;27.80;99.90
21167;DHT22;10741;52.272;9.580;2023-07-29T14:12:18;27.80;99.90
21167;DHT22;10741;52.272;9.580;2023-07-29T14:14:47;27.40;99.90
21167;DHT22;10741;52.272;9.580;2023-07-29T14:17:26;26.60;99.90
21167;DHT22;10741;52.272;9.580;2023-07-29T14:19:52;25.90;99.90
21167;DHT22;10741;52.272;9.580;2023-07-29T14:22:18;25.80;99.90
21167;DHT22;10741;52.272;9.580;2023-07-29T14:24:44;25.50;99.90
21167;DHT22;10741;52.272;9.580;2023-07-29T14:27:10;25.80;99.90
21167;DHT22;10741;52.272;9.580;2023-07-29T14:29:36;25.50;99.90
21167;DHT22;10741;52.272;9.580;2023-07-29T14:32:01;25.00;99.90
21167;DHT22;10741;52.272;9.580;2023-07-29T14:34:27;24.60;99.90
21167;DHT22;10741;52.272;9.580;2023-07-29T14:36:54;24.50;99.90
21167;DHT22;10741;52.272;9.580;2023-07-29T14:39:20;24.50;99.90
21167;DHT22;10741;52.272;9.580;2023-07-29T14:41:46;24.40;99.90
21167;DHT22;10741;52.272;9.580;2023-07-29T14:44:12;24.20;99.90
21167;DHT22;10741;52.272;9.580;2023-07-29T14:46:40;24.20;99.90
21167;DHT22;10741;52.272;9.580;2023-07-29T14:49:06;24.10;99.90
21167;DHT22;10741;52.272;9.580;2023-07-29T14:51:32;24.40;99.90
21167;DHT22;10741;52.272;9.580;2023-07-29T14:53:58;24.50;99.90
21167;DHT22;10741;52.272;9.580;2023-07-29T14:56:24;24.70;99.90
21167;DHT22;10741;52.272;9.580;2023-07-29T14:58:50;25.10;99.90
21167;DHT22;10741;52.272;9.580;2023-07-29T15:01:16;25.00;99.90
21167;DHT22;10741;52.272;9.580;2023-07-29T15:03:43;25.10;99.90
21167;DHT22;10741;52.272;9.580;2023-07-29T15:06:09;25.10;99.90
21167;DHT22;10741;52.272;9.580;2023-07-29T15:08:35;25.00;99.90
21167;DHT22;10741;52.272;9.580;2023-07-29T15:11:02;24.90;99.90
21167;DHT22;10741;52.272;9.580;2023-07-29T15:13:27;24.80;99.90
21167;DHT22;10741;52.272;9.580;2023-07-29T15:15:55;24.70;99.90
21167;DHT22;10741;52.272;9.580;2023-07-29T15:18:27;24.70;99.90
21167;DHT22;10741;52.272;9.580;2023-07-29T15:20:59;24.60;99.90
21167;DHT22;10741;52.272;9.580;2023-07-29T15:23:27;24.60;99.90
21167;DHT22;10741;52.272;9.580;2023-07-29T15:26:02;24.50;99.90
21167;DHT22;10741;52.272;9.580;2023-07-29T15:28:31;24.30;99.90
21167;DHT22;10741;52.272;9.580;2023-07-29T15:30:57;24.20;99.90
21167;DHT22;10741;52.272;9.580;2023-07-29T15:33:26;24.20;99.90
21167;DHT22;10741;52.272;9.580;2023-07-29T15:35:52;24.20;99.90
21167;DHT22;10741;52.272;9.580;2023-07-29T15:38:19;24.10;99.90
21167;DHT22;10741;52.272;9.580;2023-07-29T15:40:47;24.00;99.90
21167;DHT22;10741;52.272;9.580;2023-07-29T15:43:20;23.40;99.90
21167;DHT22;10741;52.272;9.580;2023-07-29T15:45:45;23.70;99.90
21167;DHT22;10741;52.272;9.580;2023-07-29T15:48:26;23.90;99.90
21167;DHT22;10741;52.272;9.580;2023-07-29T15:50:51;23.10;99.90
21167;DHT22;10741;52.272;9.580;2023-07-29T15:53:20;23.70;99.90
21167;DHT22;10741;52.272;9.580;2023-07-29T15:55:49;23.70;99.90
21167;DHT22;10741;52.272;9.580;2023-07-29T15:58:15;24.00;99.90
21167;DHT22;10741;52.272;9.580;2023-07-29T16:00:43;23.50;99.90
21167;DHT22;10741;52.272;9.580;2023-07-29T16:03:09;23.40;99.90
21167;DHT22;10741;52.272;9.580;2023-07-29T16:05:38;23.40;99.90
21167;DHT22;10741;52.272;9.580;2023-07-29T16:08:04;23.40;99.90
21167;DHT22;10741;52.272;9.580;2023-07-29T16:10:29;23.40;99.90
21167;DHT22;10741;52.272;9.580;2023-07-29T16:13:03;23.30;99.90
21167;DHT22;10741;52.272;9.580;2023-07-29T16:15:31;23.40;99.90
21167;DHT22;10741;52.272;9.580;2023-07-29T16:17:59;23.40;99.90
21167;DHT22;10741;52.272;9.580;2023-07-29T16:20:32;23.50;99.90
21167;DHT22;10741;52.272;9.580;2023-07-29T16:22:59;23.60;99.90
21167;DHT22;10741;52.272;9.580;2023-07-29T16:25:24;23.70;99.90
21167;DHT22;10741;52.272;9.580;2023-07-29T16:27:50;23.70;99.90
21167;DHT22;10741;52.272;9.580;2023-07-29T16:30:16;23.80;99.90
21167;DHT22;10741;52.272;9.580;2023-07-29T16:32:42;23.70;99.90
21167;DHT22;10741;52.272;9.580;2023-07-29T16:35:08;23.60;99.90
21167;DHT22;10741;52.272;9.580;2023-07-29T16:37:33;23.40;99.90
21167;DHT22;10741;52.272;9.580;2023-07-29T16:39:59;22.90;99.90
21167;DHT22;10741;52.272;9.580;2023-07-29T16:42:25;21.10;99.90
21167;DHT22;10741;52.272;9.580;2023-07-29T16:44:51;19.90;99.90
21167;DHT22;10741;52.272;9.580;2023-07-29T16:47:16;19.40;99.90
21167;DHT22;10741;52.272;9.580;2023-07-29T16:49:42;18.90;99.90
21167;DHT22;10741;52.272;9.580;2023-07-29T16:52:08;18.70;99.90
21167;DHT22;10741;52.272;9.580;2023-07-29T16:54:33;18.70;99.90
21167;DHT22;10741;52.272;9.580;2023-07-29T16:56:59;18.80;99.90
21167;DHT22;10741;52.272;9.580;2023-07-29T16:59:25;19.00;99.90
21167;DHT22;10741;52.272;9.580;2023-07-29T17:01:51;19.10;99.90
21167;DHT22;10741;52.272;9.580;2023-07-29T17:04:17;19.50;99.90
21167;DHT22;10741;52.272;9.580;2023-07-29T17:06:42;19.50;99.90
21167;DHT22;10741;52.272;9.580;2023-07-29T17:09:08;19.60;99.90
21167;DHT22;10741;52.272;9.580;2023-07-29T17:11:34;19.70;99.90
21167;DHT22;10741;52.272;9.580;2023-07-29T17:13:59;19.70;99.90
21167;DHT22;10741;52.272;9.580;2023-07-29T17:16:25;19.70;99.90
21167;DHT22;10741;52.272;9.580;2023-07-29T17:18:51;19.70;99.90
21167;DHT22;10741;52.272;9.580;2023-07-29T17:21:17;19.60;99.90
21167;DHT22;10741;52.272;9.580;2023-07-29T17:23:42;19.50;99.90
21167;DHT22;10741;52.272;9.580;2023-07-29T17:26:08;19.50;99.90
21167;DHT22;10741;52.272;9.580;2023-07-29T17:28:34;19.50;99.90
21167;DHT22;10741;52.272;9.580;2023-07-29T17:31:00;19.50;99.90
21167;DHT22;10741;52.272;9.580;2023-07-29T17:33:27;19.50;99.90
21167;DHT22;10741;52.272;9.580;2023-07-29T17:35:53;19.60;99.90
21167;DHT22;10741;52.272;9.580;2023-07-29T17:38:20;19.60;99.90
21167;DHT22;10741;52.272;9.580;2023-07-29T17:40:49;19.60;99.90
21167;DHT22;10741;52.272;9.580;2023-07-29T17:43:15;19.60;99.90
21167;DHT22;10741;52.272;9.580;2023-07-29T17:45:41;19.60;99.90
21167;DHT22;10741;52.272;9.580;2023-07-29T17:48:07;19.50;99.90
21167;DHT22;10741;52.272;9.580;2023-07-29T17:50:33;19.40;99.90
21167;DHT22;10741;52.272;9.580;2023-07-29T17:53:00;19.40;99.90
21167;DHT22;10741;52.272;9.580;2023-07-29T17:55:26;19.40;99.90
21167;DHT22;10741;52.272;9.580;2023-07-29T17:57:52;19.30;99.90
21167;DHT22;10741;52.272;9.580;2023-07-29T18:00:17;19.20;99.90
21167;DHT22;10741;52.272;9.580;2023-07-29T18:02:43;19.20;99.90
21167;DHT22;10741;52.272;9.580;2023-07-29T18:05:09;19.10;99.90
21167;DHT22;10741;52.272;9.580;2023-07-29T18:07:34;19.20;99.90
21167;DHT22;10741;52.272;9.580;2023-07-29T18:10:00;19.20;99.90
21167;DHT22;10741;52.272;9.580;2023-07-29T18:12:26;19.10;99.90
21167;DHT22;10741;52.272;9.580;2023-07-29T18:14:52;19.10;99.90
21167;DHT22;10741;52.272;9.580;2023-07-29T18:17:18;19.00;99.90
21167;DHT22;10741;52.272;9.580;2023-07-29T18:19:44;19.10;99.90
21167;DHT22;10741;52.272;9.580;2023-07-29T18:22:10;19.10;99.90
21167;DHT22;10741;52.272;9.580;2023-07-29T18:24:36;19.10;99.90
21167;DHT22;10741;52.272;9.580;2023-07-29T18:27:01;19.10;99.90
21167;DHT22;10741;52.272;9.580;2023-07-29T18:29:27;19.10;99.90
21167;DHT22;10741;52.272;9.580;2023-07-29T18:31:53;19.20;99.90
21167;DHT22;10741;52.272;9.580;2023-07-29T18:34:18;19.10;99.90
21167;DHT22;10741;52.272;9.580;2023-07-29T18:36:44;19.10;99.90
21167;DHT22;10741;52.272;9.580;2023-07-29T18:39:10;19.00;99.90
21167;DHT22;10741;52.272;9.580;2023-07-29T18:41:36;18.90;99.90
21167;DHT22;10741;52.272;9.580;2023-07-29T18:44:02;18.90;99.90
21167;DHT22;10741;52.272;9.580;2023-07-29T18:46:28;18.80;99.90
21167;DHT22;10741;52.272;9.580;2023-07-29T18:48:55;18.80;99.90
21167;DHT22;10741;52.272;9.580;2023-07-29T18:51:21;18.70;99.90
21167;DHT22;10741;52.272;9.580;2023-07-29T18:53:47;18.70;99.90
21167;DHT22;10741;52.272;9.580;2023-07-29T18:56:12;18.60;99.90
21167;DHT22;10741;52.272;9.580;2023-07-29T18:58:38;18.60;99.90
21167;DHT22;10741;52.272;9.580;2023-07-29T19:01:04;18.50;99.90
21167;DHT22;10741;52.272;9.580;2023-07-29T19:03:30;18.50;99.90
21167;DHT22;10741;52.272;9.580;2023-07-29T19:05:56;18.40;99.90
21167;DHT22;10741;52.272;9.580;2023-07-29T19:08:22;18.40;99.90
21167;DHT22;10741;52.272;9.580;2023-07-29T19:10:49;18.30;99.90
21167;DHT22;10741;52.272;9.580;2023-07-29T19:13:14;18.20;99.90
21167;DHT22;10741;52.272;9.580;2023-07-29T19:15:40;18.20;99.90
21167;DHT22;10741;52.272;9.580;2023-07-29T19:18:06;18.10;99.90
21167;DHT22;10741;52.272;9.580;2023-07-29T19:20:32;18.10;99.90
21167;DHT22;10741;52.272;9.580;2023-07-29T19:22:58;18.10;99.90
21167;DHT22;10741;52.272;9.580;2023-07-29T19:25:24;18.00;99.90
21167;DHT22;10741;52.272;9.580;2023-07-29T19:27:49;17.90;99.90
21167;DHT22;10741;52.272;9.580;2023-07-29T19:30:15;17.90;99.90
21167;DHT22;10741;52.272;9.580;2023-07-29T19:32:41;17.80;99.90
21167;DHT22;10741;52.272;9.580;2023-07-29T19:35:07;17.80;99.90
21167;DHT22;10741;52.272;9.580;2023-07-29T19:37:33;17.80;99.90
21167;DHT22;10741;52.272;9.580;2023-07-29T19:39:58;17.80;99.90
21167;DHT22;10741;52.272;9.580;2023-07-29T19:42:24;17.80;99.90
21167;DHT22;10741;52.272;9.580;2023-07-29T19:44:50;17.70;99.90
21167;DHT22;10741;52.272;9.580;2023-07-29T19:47:16;17.80;99.90
21167;DHT22;10741;52.272;9.580;2023-07-29T19:49:42;17.70;99.90
21167;DHT22;10741;52.272;9.580;2023-07-29T19:52:08;17.70;99.90
21167;DHT22;10741;52.272;9.580;2023-07-29T19:54:33;17.70;99.90
21167;DHT22;10741;52.272;9.580;2023-07-29T19:56:59;17.70;99.90
21167;DHT22;10741;52.272;9.580;2023-07-29T19:59:25;17.60;99.90
21167;DHT22;10741;52.272;9.580;2023-07-29T20:01:51;17.70;99.90
21167;DHT22;10741;52.272;9.580;2023-07-29T20:04:17;17.60;99.90
21167;DHT22;10741;52.272;9.580;2023-07-29T20:06:42;17.50;99.90
21167;DHT22;10741;52.272;9.580;2023-07-29T20:09:08;17.50;99.90
21167;DHT22;10741;52.272;9.580;2023-07-29T20:11:34;17.50;99.90
21167;DHT22;10741;52.272;9.580;2023-07-29T20:14:00;17.40;99.90
21167;DHT22;10741;52.272;9.580;2023-07-29T20:16:25;17.40;99.90
21167;DHT22;10741;52.272;9.580;2023-07-29T20:18:53;17.30;99.90
21167;DHT22;10741;52.272;9.580;2023-07-29T20:21:19;17.30;99.90
21167;DHT22;10741;52.272;9.580;2023-07-29T20:23:45;17.30;99.90
21167;DHT22;10741;52.272;9.580;2023-07-29T20:26:11;17.20;99.90
21167;DHT22;10741;52.272;9.580;2023-07-29T20:28:37;17.20;99.90
21167;DHT22;10741;52.272;9.580;2023-07-29T20:31:02;17.20;99.90
21167;DHT22;10741;52.272;9.580;2023-07-29T20:33:28;17.20;99.90
21167;DHT22;10741;52.272;9.580;2023-07-29T20:35:58;17.10;99.90
21167;DHT22;10741;52.272;9.580;2023-07-29T20:38:25;17.10;99.90
21167;DHT22;10741;52.272;9.580;2023-07-29T20:40:52;17.10;99.90
21167;DHT22;10741;52.272;9.580;2023-07-29T20:43:22;17.20;99.90
21167;DHT22;10741;52.272;9.580;2023-07-29T20:45:49;17.20;99.90
21167;DHT22;10741;52.272;9.580;2023-07-29T20:48:15;17.20;99.90
21167;DHT22;10741;52.272;9.580;2023-07-29T20:50:41;17.10;99.90
21167;DHT22;10741;52.272;9.580;2023-07-29T20:53:08;17.10;99.90
21167;DHT22;10741;52.272;9.580;2023-07-29T20:55:34;17.10;99.90
21167;DHT22;10741;52.272;9.580;2023-07-29T20:58:00;17.10;99.90
21167;DHT22;10741;52.272;9.580;2023-07-29T21:00:26;17.10;99.90
21167;DHT22;10741;52.272;9.580;2023-07-29T21:02:57;17.10;99.90
21167;DHT22;10741;52.272;9.580;2023-07-29T21:05:26;17.10;99.90
21167;DHT22;10741;52.272;9.580;2023-07-29T21:07:52;17.10;99.90
21167;DHT22;10741;52.272;9.580;2023-07-29T21:10:18;17.10;99.90
21167;DHT22;10741;52.272;9.580;2023-07-29T21:12:44;17.10;99.90
21167;DHT22;10741;52.272;9.580;2023-07-29T21:15:10;17.00;99.90
21167;DHT22;10741;52.272;9.580;2023-07-29T21:17:36;17.00;99.90
21167;DHT22;10741;52.272;9.580;2023-07-29T21:20:02;17.00;99.90
21167;DHT22;10741;52.272;9.580;2023-07-29T21:22:28;17.00;99.90
21167;DHT22;10741;52.272;9.580;2023-07-29T21:24:54;17.00;99.90
21167;DHT22;10741;52.272;9.580;2023-07-29T21:27:20;17.00;99.90
21167;DHT22;10741;52.272;9.580;2023-07-29T21:29:46;16.90;99.90
21167;DHT22;10741;52.272;9.580;2023-07-29T21:32:12;16.90;99.90
21167;DHT22;10741;52.272;9.580;2023-07-29T21:34:38;16.90;99.90
21167;DHT22;10741;52.272;9.580;2023-07-29T21:37:04;16.80;99.90
21167;DHT22;10741;52.272;9.580;2023-07-29T21:39:31;16.80;99.90
21167;DHT22;10741;52.272;9.580;2023-07-29T21:41:57;16.70;99.90
21167;DHT22;10741;52.272;9.580;2023-07-29T21:44:23;16.70;99.90
21167;DHT22;10741;52.272;9.580;2023-07-29T21:46:48;16.70;99.90
21167;DHT22;10741;52.272;9.580;2023-07-29T21:49:14;16.80;99.90
21167;DHT22;10741;52.272;9.580;2023-07-29T21:51:40;16.80;99.90
21167;DHT22;10741;52.272;9.580;2023-07-29T21:54:06;16.80;99.90
21167;DHT22;10741;52.272;9.580;2023-07-29T21:56:34;16.90;99.90
21167;DHT22;10741;52.272;9.580;2023-07-29T21:59:00;16.80;99.90
21167;DHT22;10741;52.272;9.580;2023-07-29T22:01:26;16.80;99.90
21167;DHT22;10741;52.272;9.580;2023-07-29T22:03:51;16.80;99.90
21167;DHT22;10741;52.272;9.580;2023-07-29T22:06:17;16.70;99.90
21167;DHT22;10741;52.272;9.580;2023-07-29T22:08:45;16.70;99.90
21167;DHT22;10741;52.272;9.580;2023-07-29T22:11:10;16.70;99.90
21167;DHT22;10741;52.272;9.580;2023-07-29T22:13:37;16.70;99.90
21167;DHT22;10741;52.272;9.580;2023-07-29T22:16:03;16.80;99.90
21167;DHT22;10741;52.272;9.580;2023-07-29T22:18:29;16.80;99.90
21167;DHT22;10741;52.272;9.580;2023-07-29T22:20:56;16.80;99.90
21167;DHT22;10741;52.272;9.580;2023-07-29T22:23:22;16.80;99.90
21167;DHT22;10741;52.272;9.580;2023-07-29T22:28:21;16.90;99.90
21167;DHT22;10741;52.272;9.580;2023-07-29T22:30:47;16.90;99.90
21167;DHT22;10741;52.272;9.580;2023-07-29T22:33:12;17.00;99.90
21167;DHT22;10741;52.272;9.580;2023-07-29T22:35:38;17.10;99.90
21167;DHT22;10741;52.272;9.580;2023-07-29T22:38:04;17.20;99.90
21167;DHT22;10741;52.272;9.580;2023-07-29T22:40:29;17.20;99.90
21167;DHT22;10741;52.272;9.580;2023-07-29T22:42:55;17.30;99.90
21167;DHT22;10741;52.272;9.580;2023-07-29T22:45:27;17.30;99.90